sensor_id;sensor_type;location;lat;lon;timestamp;temperature;humidity
52643;DHT22;38531;53.296;6.614;2022-12-18T00:03:36;-3.70;99.90
52643;DHT22;38531;53.296;6.614;2022-12-18T00:10:08;-3.70;99.90
52643;DHT22;38531;53.296;6.614;2022-12-18T00:13:38;-3.70;99.90
52643;DHT22;38531;53.296;6.614;2022-12-18T00:20:04;-3.80;99.90
52643;DHT22;38531;53.296;6.614;2022-12-18T00:37:18;-3.80;99.90
52643;DHT22;38531;53.296;6.614;2022-12-18T00:40:42;-3.80;99.90
52643;DHT22;38531;53.296;6.614;2022-12-18T00:43:56;-3.80;99.90
52643;DHT22;38531;53.296;6.614;2022-12-18T00:47:20;-3.80;99.90
52643;DHT22;38531;53.296;6.614;2022-12-18T00:50:32;-3.80;99.90
52643;DHT22;38531;53.296;6.614;2022-12-18T00:56:38;-3.80;99.90
52643;DHT22;38531;53.296;6.614;2022-12-18T01:00:00;-3.90;99.90
52643;DHT22;38531;53.296;6.614;2022-12-18T01:06:46;-3.90;99.90
52643;DHT22;38531;53.296;6.614;2022-12-18T01:09:53;-3.90;99.90
52643;DHT22;38531;53.296;6.614;2022-12-18T01:12:58;-4.00;99.90
52643;DHT22;38531;53.296;6.614;2022-12-18T01:15:54;-4.00;99.90
52643;DHT22;38531;53.296;6.614;2022-12-18T01:21:57;-4.10;99.90
52643;DHT22;38531;53.296;6.614;2022-12-18T01:25:16;-4.10;99.90
52643;DHT22;38531;53.296;6.614;2022-12-18T01:32:08;-4.20;99.90
52643;DHT22;38531;53.296;6.614;2022-12-18T01:35:14;-4.20;99.90
52643;DHT22;38531;53.296;6.614;2022-12-18T01:48:58;-4.40;99.90
52643;DHT22;38531;53.296;6.614;2022-12-18T02:01:48;-4.50;99.90
52643;DHT22;38531;53.296;6.614;2022-12-18T02:04:56;-4.60;99.90
52643;DHT22;38531;53.296;6.614;2022-12-18T02:08:08;-4.70;99.90
52643;DHT22;38531;53.296;6.614;2022-12-18T02:31:41;-5.00;99.90
52643;DHT22;38531;53.296;6.614;2022-12-18T02:38:20;-5.20;99.90
52643;DHT22;38531;53.296;6.614;2022-12-18T02:41:50;-5.20;99.90
52643;DHT22;38531;53.296;6.614;2022-12-18T02:44:57;-5.20;99.90
52643;DHT22;38531;53.296;6.614;2022-12-18T02:51:25;-5.30;99.90
52643;DHT22;38531;53.296;6.614;2022-12-18T03:09:14;-5.40;99.90
52643;DHT22;38531;53.296;6.614;2022-12-18T03:12:33;-5.40;99.90
52643;DHT22;38531;53.296;6.614;2022-12-18T03:15:44;-5.40;99.90
52643;DHT22;38531;53.296;6.614;2022-12-18T03:18:42;-5.40;99.90
52643;DHT22;38531;53.296;6.614;2022-12-18T03:29:06;-5.40;99.90
52643;DHT22;38531;53.296;6.614;2022-12-18T03:32:16;-5.40;99.90
52643;DHT22;38531;53.296;6.614;2022-12-18T03:35:26;-5.40;99.90
52643;DHT22;38531;53.296;6.614;2022-12-18T03:38:36;-5.40;99.90
52643;DHT22;38531;53.296;6.614;2022-12-18T03:41:46;-5.30;99.90
52643;DHT22;38531;53.296;6.614;2022-12-18T03:55:12;-6.70;99.90
52643;DHT22;38531;53.296;6.614;2022-12-18T03:58:50;-5.40;99.90
52643;DHT22;38531;53.296;6.614;2022-12-18T04:02:05;-5.40;99.90
52643;DHT22;38531;53.296;6.614;2022-12-18T04:05:28;-5.40;99.90
52643;DHT22;38531;53.296;6.614;2022-12-18T04:08:52;-5.50;99.90
52643;DHT22;38531;53.296;6.614;2022-12-18T04:12:18;-5.50;99.90
52643;DHT22;38531;53.296;6.614;2022-12-18T04:19:02;-5.60;99.90
52643;DHT22;38531;53.296;6.614;2022-12-18T04:22:24;-4.60;99.90
52643;DHT22;38531;53.296;6.614;2022-12-18T04:39:52;-5.70;99.90
52643;DHT22;38531;53.296;6.614;2022-12-18T04:43:24;-5.70;99.90
52643;DHT22;38531;53.296;6.614;2022-12-18T04:46:42;-5.80;99.90
52643;DHT22;38531;53.296;6.614;2022-12-18T04:57:10;-5.80;99.90
52643;DHT22;38531;53.296;6.614;2022-12-18T05:00:40;-5.90;99.90
52643;DHT22;38531;53.296;6.614;2022-12-18T05:03:08;-5.90;99.90
52643;DHT22;38531;53.296;6.614;2022-12-18T05:16:07;-6.00;99.90
52643;DHT22;38531;53.296;6.614;2022-12-18T05:19:04;-6.10;99.90
52643;DHT22;38531;53.296;6.614;2022-12-18T05:22:15;-6.10;99.90
52643;DHT22;38531;53.296;6.614;2022-12-18T05:25:26;-6.10;99.90
52643;DHT22;38531;53.296;6.614;2022-12-18T05:28:53;-6.10;99.90
52643;DHT22;38531;53.296;6.614;2022-12-18T05:32:06;-6.20;99.90
52643;DHT22;38531;53.296;6.614;2022-12-18T05:35:36;-6.20;99.90
52643;DHT22;38531;53.296;6.614;2022-12-18T05:38:43;-6.30;99.90
52643;DHT22;38531;53.296;6.614;2022-12-18T05:45:31;-6.30;99.90
52643;DHT22;38531;53.296;6.614;2022-12-18T05:51:52;-6.30;99.90
52643;DHT22;38531;53.296;6.614;2022-12-18T05:58:20;-6.40;99.90
52643;DHT22;38531;53.296;6.614;2022-12-18T06:01:36;-6.40;99.90
52643;DHT22;38531;53.296;6.614;2022-12-18T06:04:52;-6.40;99.90
52643;DHT22;38531;53.296;6.614;2022-12-18T06:08:01;-6.40;99.90
52643;DHT22;38531;53.296;6.614;2022-12-18T06:11:24;-6.40;99.90
52643;DHT22;38531;53.296;6.614;2022-12-18T06:14:12;-6.40;99.90
52643;DHT22;38531;53.296;6.614;2022-12-18T06:17:05;-6.50;99.90
52643;DHT22;38531;53.296;6.614;2022-12-18T06:26:48;-6.60;99.90
52643;DHT22;38531;53.296;6.614;2022-12-18T06:30:02;-6.60;99.90
52643;DHT22;38531;53.296;6.614;2022-12-18T06:33:25;-6.60;99.90
52643;DHT22;38531;53.296;6.614;2022-12-18T06:39:57;-6.70;99.90
52643;DHT22;38531;53.296;6.614;2022-12-18T06:43:10;-6.70;99.90
52643;DHT22;38531;53.296;6.614;2022-12-18T06:49:20;-6.70;99.90
52643;DHT22;38531;53.296;6.614;2022-12-18T06:52:35;-6.70;99.90
52643;DHT22;38531;53.296;6.614;2022-12-18T07:12:08;-6.70;99.90
52643;DHT22;38531;53.296;6.614;2022-12-18T07:14:58;-6.80;99.90
52643;DHT22;38531;53.296;6.614;2022-12-18T07:17:46;-6.80;99.90
52643;DHT22;38531;53.296;6.614;2022-12-18T07:21:09;-6.80;99.90
52643;DHT22;38531;53.296;6.614;2022-12-18T07:27:09;-6.70;99.90
52643;DHT22;38531;53.296;6.614;2022-12-18T07:30:01;-6.70;99.90
52643;DHT22;38531;53.296;6.614;2022-12-18T07:32:55;-6.70;99.90
52643;DHT22;38531;53.296;6.614;2022-12-18T07:35:48;-6.70;99.90
52643;DHT22;38531;53.296;6.614;2022-12-18T07:38:41;-6.60;99.90
52643;DHT22;38531;53.296;6.614;2022-12-18T07:41:35;-6.60;99.90
52643;DHT22;38531;53.296;6.614;2022-12-18T07:47:49;-6.60;99.90
52643;DHT22;38531;53.296;6.614;2022-12-18T07:50:54;-6.60;99.90
52643;DHT22;38531;53.296;6.614;2022-12-18T07:53:47;-6.60;99.90
52643;DHT22;38531;53.296;6.614;2022-12-18T07:56:45;-6.60;99.90
52643;DHT22;38531;53.296;6.614;2022-12-18T07:59:46;-6.50;99.90
52643;DHT22;38531;53.296;6.614;2022-12-18T08:02:17;-6.60;99.90
52643;DHT22;38531;53.296;6.614;2022-12-18T08:05:31;-6.60;99.90
52643;DHT22;38531;53.296;6.614;2022-12-18T08:11:31;-6.60;99.90
52643;DHT22;38531;53.296;6.614;2022-12-18T08:14:34;-6.50;99.90
52643;DHT22;38531;53.296;6.614;2022-12-18T08:17:08;-6.50;99.90
52643;DHT22;38531;53.296;6.614;2022-12-18T08:19:45;-6.50;99.90
52643;DHT22;38531;53.296;6.614;2022-12-18T08:22:44;-6.50;99.90
52643;DHT22;38531;53.296;6.614;2022-12-18T08:25:46;-6.50;99.90
52643;DHT22;38531;53.296;6.614;2022-12-18T08:28:50;-6.50;99.90
52643;DHT22;38531;53.296;6.614;2022-12-18T08:31:53;-6.50;99.90
52643;DHT22;38531;53.296;6.614;2022-12-18T08:34:49;-6.40;99.90
52643;DHT22;38531;53.296;6.614;2022-12-18T08:37:46;-6.40;99.90
52643;DHT22;38531;53.296;6.614;2022-12-18T08:40:46;-6.40;99.90
52643;DHT22;38531;53.296;6.614;2022-12-18T08:43:46;-6.30;99.90
52643;DHT22;38531;53.296;6.614;2022-12-18T08:46:49;-6.30;99.90
52643;DHT22;38531;53.296;6.614;2022-12-18T08:49:47;-6.20;99.90
52643;DHT22;38531;53.296;6.614;2022-12-18T08:52:26;-6.20;99.90
52643;DHT22;38531;53.296;6.614;2022-12-18T08:55:28;-6.10;99.90
52643;DHT22;38531;53.296;6.614;2022-12-18T09:07:22;-6.00;99.90
52643;DHT22;38531;53.296;6.614;2022-12-18T09:13:44;-5.80;99.90
52643;DHT22;38531;53.296;6.614;2022-12-18T09:16:31;-5.70;99.90
52643;DHT22;38531;53.296;6.614;2022-12-18T09:19:38;-5.60;99.90
52643;DHT22;38531;53.296;6.614;2022-12-18T09:22:36;-5.60;99.90
52643;DHT22;38531;53.296;6.614;2022-12-18T09:25:24;-5.50;99.90
52643;DHT22;38531;53.296;6.614;2022-12-18T09:28:38;-5.40;99.90
52643;DHT22;38531;53.296;6.614;2022-12-18T09:31:25;-5.90;99.90
52643;DHT22;38531;53.296;6.614;2022-12-18T09:34:25;-5.20;99.90
52643;DHT22;38531;53.296;6.614;2022-12-18T09:37:23;-5.20;99.90
52643;DHT22;38531;53.296;6.614;2022-12-18T09:43:49;-5.00;99.90
52643;DHT22;38531;53.296;6.614;2022-12-18T09:47:23;-4.80;99.90
52643;DHT22;38531;53.296;6.614;2022-12-18T09:53:12;-4.60;99.90
52643;DHT22;38531;53.296;6.614;2022-12-18T09:59:02;-4.60;99.90
52643;DHT22;38531;53.296;6.614;2022-12-18T10:02:16;-4.50;99.90
52643;DHT22;38531;53.296;6.614;2022-12-18T10:05:16;-4.50;99.90
52643;DHT22;38531;53.296;6.614;2022-12-18T10:14:29;-4.30;99.90
52643;DHT22;38531;53.296;6.614;2022-12-18T10:17:33;-4.20;99.90
52643;DHT22;38531;53.296;6.614;2022-12-18T10:20:40;-4.10;99.90
52643;DHT22;38531;53.296;6.614;2022-12-18T10:26:43;-3.90;99.90
52643;DHT22;38531;53.296;6.614;2022-12-18T10:33:17;-3.60;99.90
52643;DHT22;38531;53.296;6.614;2022-12-18T10:36:16;-3.50;99.90
52643;DHT22;38531;53.296;6.614;2022-12-18T10:42:23;-3.30;99.90
52643;DHT22;38531;53.296;6.614;2022-12-18T10:45:20;-3.30;99.90
52643;DHT22;38531;53.296;6.614;2022-12-18T10:48:31;-3.30;99.90
52643;DHT22;38531;53.296;6.614;2022-12-18T11:05:08;-3.10;99.90
52643;DHT22;38531;53.296;6.614;2022-12-18T11:08:28;-3.30;99.90
52643;DHT22;38531;53.296;6.614;2022-12-18T11:15:13;-3.00;99.90
52643;DHT22;38531;53.296;6.614;2022-12-18T11:24:39;-2.80;99.90
52643;DHT22;38531;53.296;6.614;2022-12-18T11:27:55;-2.80;99.90
52643;DHT22;38531;53.296;6.614;2022-12-18T11:30:48;-2.70;99.90
52643;DHT22;38531;53.296;6.614;2022-12-18T11:34:01;-2.70;99.90
52643;DHT22;38531;53.296;6.614;2022-12-18T11:37:11;-2.70;99.90
52643;DHT22;38531;53.296;6.614;2022-12-18T11:40:29;-2.60;99.90
52643;DHT22;38531;53.296;6.614;2022-12-18T11:43:48;-2.60;99.90
52643;DHT22;38531;53.296;6.614;2022-12-18T11:53:32;-2.40;99.90
52643;DHT22;38531;53.296;6.614;2022-12-18T11:56:35;-2.40;99.90
52643;DHT22;38531;53.296;6.614;2022-12-18T12:02:42;-2.30;99.90
52643;DHT22;38531;53.296;6.614;2022-12-18T12:09:25;-2.30;99.90
52643;DHT22;38531;53.296;6.614;2022-12-18T12:13:06;-2.20;99.90
52643;DHT22;38531;53.296;6.614;2022-12-18T12:34:51;-2.10;99.90
52643;DHT22;38531;53.296;6.614;2022-12-18T12:37:51;-2.00;99.90
52643;DHT22;38531;53.296;6.614;2022-12-18T12:44:49;-1.90;99.90
52643;DHT22;38531;53.296;6.614;2022-12-18T12:47:32;-2.00;99.90
52643;DHT22;38531;53.296;6.614;2022-12-18T12:50:18;-1.90;99.90
52643;DHT22;38531;53.296;6.614;2022-12-18T12:52:55;-1.90;99.90
52643;DHT22;38531;53.296;6.614;2022-12-18T12:55:50;-1.90;99.90
52643;DHT22;38531;53.296;6.614;2022-12-18T13:05:51;-1.80;99.90
52643;DHT22;38531;53.296;6.614;2022-12-18T13:08:53;-1.80;99.90
52643;DHT22;38531;53.296;6.614;2022-12-18T13:14:39;-1.80;99.90
52643;DHT22;38531;53.296;6.614;2022-12-18T13:17:32;-1.70;99.90
52643;DHT22;38531;53.296;6.614;2022-12-18T13:26:37;-1.60;99.90
52643;DHT22;38531;53.296;6.614;2022-12-18T13:29:48;-1.60;99.90
52643;DHT22;38531;53.296;6.614;2022-12-18T13:41:37;-1.50;99.90
52643;DHT22;38531;53.296;6.614;2022-12-18T13:44:33;-1.50;99.90
52643;DHT22;38531;53.296;6.614;2022-12-18T13:47:03;-1.50;99.90
52643;DHT22;38531;53.296;6.614;2022-12-18T13:52:19;-1.50;99.90
52643;DHT22;38531;53.296;6.614;2022-12-18T13:55:01;-1.60;99.90
52643;DHT22;38531;53.296;6.614;2022-12-18T13:57:37;-1.80;99.90
52643;DHT22;38531;53.296;6.614;2022-12-18T14:03:15;-1.50;99.90
52643;DHT22;38531;53.296;6.614;2022-12-18T14:06:16;-1.50;99.90
52643;DHT22;38531;53.296;6.614;2022-12-18T14:08:54;-1.50;99.90
52643;DHT22;38531;53.296;6.614;2022-12-18T14:11:54;-1.50;99.90
52643;DHT22;38531;53.296;6.614;2022-12-18T14:20:57;-1.60;99.90
52643;DHT22;38531;53.296;6.614;2022-12-18T14:27:30;-1.60;99.90
52643;DHT22;38531;53.296;6.614;2022-12-18T14:30:32;-1.60;99.90
52643;DHT22;38531;53.296;6.614;2022-12-18T14:33:53;-1.70;99.90
52643;DHT22;38531;53.296;6.614;2022-12-18T14:36:29;-1.70;99.90
52643;DHT22;38531;53.296;6.614;2022-12-18T14:38:59;-1.70;99.90
52643;DHT22;38531;53.296;6.614;2022-12-18T14:41:31;-1.70;99.90
52643;DHT22;38531;53.296;6.614;2022-12-18T14:44:10;-1.80;99.90
52643;DHT22;38531;53.296;6.614;2022-12-18T14:46:46;-1.80;99.90
52643;DHT22;38531;53.296;6.614;2022-12-18T14:51:57;-1.80;99.90
52643;DHT22;38531;53.296;6.614;2022-12-18T14:54:30;-1.90;99.90
52643;DHT22;38531;53.296;6.614;2022-12-18T15:00:15;-1.90;99.90
52643;DHT22;38531;53.296;6.614;2022-12-18T15:02:48;-2.00;99.90
52643;DHT22;38531;53.296;6.614;2022-12-18T15:05:20;-2.00;99.90
52643;DHT22;38531;53.296;6.614;2022-12-18T15:07:52;-2.00;99.90
52643;DHT22;38531;53.296;6.614;2022-12-18T15:10:26;-2.00;99.90
52643;DHT22;38531;53.296;6.614;2022-12-18T15:20:54;-2.10;99.90
52643;DHT22;38531;53.296;6.614;2022-12-18T15:23:51;-2.10;99.90
52643;DHT22;38531;53.296;6.614;2022-12-18T15:26:20;-2.10;99.90
52643;DHT22;38531;53.296;6.614;2022-12-18T15:28:53;-2.10;99.90
52643;DHT22;38531;53.296;6.614;2022-12-18T15:31:30;-2.10;99.90
52643;DHT22;38531;53.296;6.614;2022-12-18T15:34:14;-2.10;99.90
52643;DHT22;38531;53.296;6.614;2022-12-18T15:37:08;-2.20;99.90
52643;DHT22;38531;53.296;6.614;2022-12-18T15:40:02;-2.20;99.90
52643;DHT22;38531;53.296;6.614;2022-12-18T15:43:08;-2.30;99.90
52643;DHT22;38531;53.296;6.614;2022-12-18T15:46:21;-2.30;99.90
52643;DHT22;38531;53.296;6.614;2022-12-18T15:49:20;-2.30;99.90
52643;DHT22;38531;53.296;6.614;2022-12-18T15:52:35;-2.30;99.90
52643;DHT22;38531;53.296;6.614;2022-12-18T15:55:52;-2.30;99.90
52643;DHT22;38531;53.296;6.614;2022-12-18T16:02:14;-2.30;99.90
52643;DHT22;38531;53.296;6.614;2022-12-18T16:08:37;-2.40;99.90
52643;DHT22;38531;53.296;6.614;2022-12-18T16:11:37;-2.40;99.90
52643;DHT22;38531;53.296;6.614;2022-12-18T16:14:46;-2.40;99.90
52643;DHT22;38531;53.296;6.614;2022-12-18T16:17:38;-2.40;99.90
52643;DHT22;38531;53.296;6.614;2022-12-18T16:23:40;-2.40;99.90
52643;DHT22;38531;53.296;6.614;2022-12-18T16:26:15;-2.40;99.90
52643;DHT22;38531;53.296;6.614;2022-12-18T16:28:43;-2.40;99.90
52643;DHT22;38531;53.296;6.614;2022-12-18T16:31:11;-2.40;99.90
52643;DHT22;38531;53.296;6.614;2022-12-18T16:33:37;-2.50;99.90
52643;DHT22;38531;53.296;6.614;2022-12-18T16:36:05;-2.40;99.90
52643;DHT22;38531;53.296;6.614;2022-12-18T16:38:31;-2.40;99.90
52643;DHT22;38531;53.296;6.614;2022-12-18T16:40:58;-2.40;99.90
52643;DHT22;38531;53.296;6.614;2022-12-18T16:43:43;-2.40;99.90
52643;DHT22;38531;53.296;6.614;2022-12-18T16:46:10;-2.40;99.90
52643;DHT22;38531;53.296;6.614;2022-12-18T16:48:36;-2.40;99.90
52643;DHT22;38531;53.296;6.614;2022-12-18T16:51:04;-2.40;99.90
52643;DHT22;38531;53.296;6.614;2022-12-18T16:53:33;-2.40;99.90
52643;DHT22;38531;53.296;6.614;2022-12-18T16:55:59;-2.40;99.90
52643;DHT22;38531;53.296;6.614;2022-12-18T16:58:25;-2.40;99.90
52643;DHT22;38531;53.296;6.614;2022-12-18T17:00:54;-2.30;99.90
52643;DHT22;38531;53.296;6.614;2022-12-18T17:03:21;-2.40;99.90
52643;DHT22;38531;53.296;6.614;2022-12-18T17:05:48;-1.20;99.90
52643;DHT22;38531;53.296;6.614;2022-12-18T17:08:14;-2.30;99.90
52643;DHT22;38531;53.296;6.614;2022-12-18T17:10:41;-2.30;99.90
52643;DHT22;38531;53.296;6.614;2022-12-18T17:13:08;-2.30;99.90
52643;DHT22;38531;53.296;6.614;2022-12-18T17:15:35;-2.20;99.90
52643;DHT22;38531;53.296;6.614;2022-12-18T17:18:02;-2.20;99.90
52643;DHT22;38531;53.296;6.614;2022-12-18T17:20:29;-2.20;99.90
52643;DHT22;38531;53.296;6.614;2022-12-18T17:22:56;-2.20;99.90
52643;DHT22;38531;53.296;6.614;2022-12-18T17:25:25;-2.20;99.90
52643;DHT22;38531;53.296;6.614;2022-12-18T17:27:52;-2.10;99.90
52643;DHT22;38531;53.296;6.614;2022-12-18T17:30:22;-2.10;99.90
52643;DHT22;38531;53.296;6.614;2022-12-18T17:32:50;-2.10;99.90
52643;DHT22;38531;53.296;6.614;2022-12-18T17:35:18;-2.10;99.90
52643;DHT22;38531;53.296;6.614;2022-12-18T17:37:45;-1.90;99.90
52643;DHT22;38531;53.296;6.614;2022-12-18T17:40:15;-2.00;99.90
52643;DHT22;38531;53.296;6.614;2022-12-18T17:42:43;-2.00;99.90
52643;DHT22;38531;53.296;6.614;2022-12-18T17:45:12;-2.00;99.90
52643;DHT22;38531;53.296;6.614;2022-12-18T17:47:39;-1.20;99.90
52643;DHT22;38531;53.296;6.614;2022-12-18T17:50:08;-1.90;99.90
52643;DHT22;38531;53.296;6.614;2022-12-18T17:52:34;-1.90;99.90
52643;DHT22;38531;53.296;6.614;2022-12-18T17:55:01;-1.90;99.90
52643;DHT22;38531;53.296;6.614;2022-12-18T17:57:31;-1.40;99.90
52643;DHT22;38531;53.296;6.614;2022-12-18T18:00:02;-1.90;99.90
52643;DHT22;38531;53.296;6.614;2022-12-18T18:02:31;-1.90;99.90
52643;DHT22;38531;53.296;6.614;2022-12-18T18:05:05;-1.90;99.90
52643;DHT22;38531;53.296;6.614;2022-12-18T18:07:36;-1.80;99.90
52643;DHT22;38531;53.296;6.614;2022-12-18T18:10:21;-1.80;99.90
52643;DHT22;38531;53.296;6.614;2022-12-18T18:13:04;-1.80;99.90
52643;DHT22;38531;53.296;6.614;2022-12-18T18:15:58;-1.80;99.90
52643;DHT22;38531;53.296;6.614;2022-12-18T18:18:35;-1.80;99.90
52643;DHT22;38531;53.296;6.614;2022-12-18T18:21:11;-1.80;99.90
52643;DHT22;38531;53.296;6.614;2022-12-18T18:23:47;-1.70;99.90
52643;DHT22;38531;53.296;6.614;2022-12-18T18:26:25;-1.70;99.90
52643;DHT22;38531;53.296;6.614;2022-12-18T18:29:03;-1.70;99.90
52643;DHT22;38531;53.296;6.614;2022-12-18T18:31:36;-1.70;99.90
52643;DHT22;38531;53.296;6.614;2022-12-18T18:34:16;-1.70;99.90
52643;DHT22;38531;53.296;6.614;2022-12-18T18:37:19;-1.70;99.90
52643;DHT22;38531;53.296;6.614;2022-12-18T18:39:57;-1.60;99.90
52643;DHT22;38531;53.296;6.614;2022-12-18T18:45:25;-1.60;99.90
52643;DHT22;38531;53.296;6.614;2022-12-18T18:48:26;-1.60;99.90
52643;DHT22;38531;53.296;6.614;2022-12-18T18:54:38;-1.60;99.90
52643;DHT22;38531;53.296;6.614;2022-12-18T19:04:41;-1.60;99.90
52643;DHT22;38531;53.296;6.614;2022-12-18T19:07:32;-1.60;99.90
52643;DHT22;38531;53.296;6.614;2022-12-18T19:13:22;-1.50;99.90
52643;DHT22;38531;53.296;6.614;2022-12-18T19:26:29;-1.40;99.90
52643;DHT22;38531;53.296;6.614;2022-12-18T19:29:28;-1.40;99.90
52643;DHT22;38531;53.296;6.614;2022-12-18T19:32:18;-1.40;99.90
52643;DHT22;38531;53.296;6.614;2022-12-18T19:35:11;-1.30;99.90
52643;DHT22;38531;53.296;6.614;2022-12-18T19:37:41;-1.30;99.90
52643;DHT22;38531;53.296;6.614;2022-12-18T19:40:23;-1.30;99.90
52643;DHT22;38531;53.296;6.614;2022-12-18T19:46:29;-1.30;99.90
52643;DHT22;38531;53.296;6.614;2022-12-18T19:49:46;-1.30;99.90
52643;DHT22;38531;53.296;6.614;2022-12-18T19:52:27;-1.30;99.90
52643;DHT22;38531;53.296;6.614;2022-12-18T19:54:53;-1.30;99.90
52643;DHT22;38531;53.296;6.614;2022-12-18T19:57:24;-1.30;99.90
52643;DHT22;38531;53.296;6.614;2022-12-18T19:59:52;-1.30;99.90
52643;DHT22;38531;53.296;6.614;2022-12-18T20:02:18;-1.30;99.90
52643;DHT22;38531;53.296;6.614;2022-12-18T20:04:50;-1.30;99.90
52643;DHT22;38531;53.296;6.614;2022-12-18T20:07:17;-1.30;99.90
52643;DHT22;38531;53.296;6.614;2022-12-18T20:09:50;-1.30;99.90
52643;DHT22;38531;53.296;6.614;2022-12-18T20:12:18;-1.20;99.90
52643;DHT22;38531;53.296;6.614;2022-12-18T20:14:47;-1.20;99.90
52643;DHT22;38531;53.296;6.614;2022-12-18T20:17:23;-1.20;99.90
52643;DHT22;38531;53.296;6.614;2022-12-18T20:19:52;-1.20;99.90
52643;DHT22;38531;53.296;6.614;2022-12-18T20:22:25;-1.20;99.90
52643;DHT22;38531;53.296;6.614;2022-12-18T20:24:53;-1.20;99.90
52643;DHT22;38531;53.296;6.614;2022-12-18T20:27:25;-1.20;99.90
52643;DHT22;38531;53.296;6.614;2022-12-18T20:29:53;-1.20;99.90
52643;DHT22;38531;53.296;6.614;2022-12-18T20:32:27;-1.10;99.90
52643;DHT22;38531;53.296;6.614;2022-12-18T20:34:54;-1.20;99.90
52643;DHT22;38531;53.296;6.614;2022-12-18T20:37:24;-1.10;99.90
52643;DHT22;38531;53.296;6.614;2022-12-18T20:39:52;-1.10;99.90
52643;DHT22;38531;53.296;6.614;2022-12-18T20:42:22;-0.60;99.90
52643;DHT22;38531;53.296;6.614;2022-12-18T20:44:50;-1.10;99.90
52643;DHT22;38531;53.296;6.614;2022-12-18T20:47:18;-1.10;99.90
52643;DHT22;38531;53.296;6.614;2022-12-18T20:49:45;-1.10;99.90
52643;DHT22;38531;53.296;6.614;2022-12-18T20:52:11;-1.10;99.90
52643;DHT22;38531;53.296;6.614;2022-12-18T20:54:38;-1.40;99.90
52643;DHT22;38531;53.296;6.614;2022-12-18T20:57:04;-1.10;99.90
52643;DHT22;38531;53.296;6.614;2022-12-18T20:59:30;-1.10;99.90
52643;DHT22;38531;53.296;6.614;2022-12-18T21:01:57;-1.00;99.90
52643;DHT22;38531;53.296;6.614;2022-12-18T21:04:23;-1.00;99.90
52643;DHT22;38531;53.296;6.614;2022-12-18T21:06:51;-1.00;99.90
52643;DHT22;38531;53.296;6.614;2022-12-18T21:09:19;-1.00;99.90
52643;DHT22;38531;53.296;6.614;2022-12-18T21:11:46;-1.00;99.90
52643;DHT22;38531;53.296;6.614;2022-12-18T21:14:32;-0.90;99.90
52643;DHT22;38531;53.296;6.614;2022-12-18T21:17:02;-0.90;99.90
52643;DHT22;38531;53.296;6.614;2022-12-18T21:19:29;-0.90;99.90
52643;DHT22;38531;53.296;6.614;2022-12-18T21:21:56;-0.30;99.90
52643;DHT22;38531;53.296;6.614;2022-12-18T21:24:23;-0.80;99.90
52643;DHT22;38531;53.296;6.614;2022-12-18T21:26:50;-0.80;99.90
52643;DHT22;38531;53.296;6.614;2022-12-18T21:29:22;-0.80;99.90
52643;DHT22;38531;53.296;6.614;2022-12-18T21:31:50;-0.80;99.90
52643;DHT22;38531;53.296;6.614;2022-12-18T21:34:22;-0.80;99.90
52643;DHT22;38531;53.296;6.614;2022-12-18T21:36:50;-0.70;99.90
52643;DHT22;38531;53.296;6.614;2022-12-18T21:39:17;-0.70;99.90
52643;DHT22;38531;53.296;6.614;2022-12-18T21:41:44;-0.70;99.90
52643;DHT22;38531;53.296;6.614;2022-12-18T21:44:29;-1.80;99.90
52643;DHT22;38531;53.296;6.614;2022-12-18T21:46:57;-0.70;99.90
52643;DHT22;38531;53.296;6.614;2022-12-18T21:57:07;-0.60;99.90
52643;DHT22;38531;53.296;6.614;2022-12-18T21:59:39;-0.60;99.90
52643;DHT22;38531;53.296;6.614;2022-12-18T22:02:14;-0.60;99.90
52643;DHT22;38531;53.296;6.614;2022-12-18T22:04:41;0.40;99.90
52643;DHT22;38531;53.296;6.614;2022-12-18T22:07:08;-0.50;99.90
52643;DHT22;38531;53.296;6.614;2022-12-18T22:09:37;-0.50;99.90
52643;DHT22;38531;53.296;6.614;2022-12-18T22:12:03;-0.50;99.90
52643;DHT22;38531;53.296;6.614;2022-12-18T22:14:31;-0.50;99.90
52643;DHT22;38531;53.296;6.614;2022-12-18T22:16:59;-0.50;99.90
52643;DHT22;38531;53.296;6.614;2022-12-18T22:19:27;-0.40;99.90
52643;DHT22;38531;53.296;6.614;2022-12-18T22:21:54;-0.40;99.90
52643;DHT22;38531;53.296;6.614;2022-12-18T22:24:24;-0.40;99.90
52643;DHT22;38531;53.296;6.614;2022-12-18T22:27:01;-0.40;99.90
52643;DHT22;38531;53.296;6.614;2022-12-18T22:29:27;-0.40;99.90
52643;DHT22;38531;53.296;6.614;2022-12-18T22:32:14;-0.30;99.90
52643;DHT22;38531;53.296;6.614;2022-12-18T22:34:43;-0.30;99.90
52643;DHT22;38531;53.296;6.614;2022-12-18T22:37:14;-0.30;99.90
52643;DHT22;38531;53.296;6.614;2022-12-18T22:39:41;-0.20;99.90
52643;DHT22;38531;53.296;6.614;2022-12-18T22:42:09;-0.20;99.90
52643;DHT22;38531;53.296;6.614;2022-12-18T22:44:36;-0.20;99.90
52643;DHT22;38531;53.296;6.614;2022-12-18T22:47:03;-0.20;99.90
52643;DHT22;38531;53.296;6.614;2022-12-18T22:49:32;-0.20;99.90
52643;DHT22;38531;53.296;6.614;2022-12-18T22:51:58;-0.10;99.90
52643;DHT22;38531;53.296;6.614;2022-12-18T22:54:24;-0.10;99.90
52643;DHT22;38531;53.296;6.614;2022-12-18T22:56:51;0.00;99.90
52643;DHT22;38531;53.296;6.614;2022-12-18T23:02:30;0.00;99.90
52643;DHT22;38531;53.296;6.614;2022-12-18T23:05:34;0.00;99.90
52643;DHT22;38531;53.296;6.614;2022-12-18T23:08:58;0.00;99.90
52643;DHT22;38531;53.296;6.614;2022-12-18T23:12:30;0.00;99.90
52643;DHT22;38531;53.296;6.614;2022-12-18T23:15:28;0.10;99.90
52643;DHT22;38531;53.296;6.614;2022-12-18T23:18:34;0.10;99.90
52643;DHT22;38531;53.296;6.614;2022-12-18T23:21:40;0.10;99.90
52643;DHT22;38531;53.296;6.614;2022-12-18T23:24:28;0.10;99.90
52643;DHT22;38531;53.296;6.614;2022-12-18T23:27:32;0.10;99.90
52643;DHT22;38531;53.296;6.614;2022-12-18T23:30:51;0.10;99.90
52643;DHT22;38531;53.296;6.614;2022-12-18T23:36:42;0.10;99.90
52643;DHT22;38531;53.296;6.614;2022-12-18T23:40:00;0.10;99.90
52643;DHT22;38531;53.296;6.614;2022-12-18T23:46:31;0.10;99.90
52643;DHT22;38531;53.296;6.614;2022-12-18T23:49:48;0.10;99.90
52643;DHT22;38531;53.296;6.614;2022-12-18T23:56:10;0.10;99.90
52643;DHT22;38531;53.296;6.614;2022-12-18T23:59:08;0.10;99.90
